Terminal Aerodrome Forecast
Issued by NWS

Current Version | Previous Version | Text Only | Print | Product List | Glossary On
Versions: 1 2 3 4 5 6 7 8 9 10 11 12 13 14
000 FTUS41 KBTV 301129 TAFMPV TAF KMPV 301129Z 3012/0112 17004KT P6SM BKN150 FM302100 17007KT P6SM -SHRA BKN045 BKN100 FM010500 17005KT P6SM VCSH BKN040 TEMPO 0108/0111 3SM BR SCT002=

USA.gov is the U.S. government's official web portal to all federal, state and local government web resources and services.